createdAt,value
2023-05-05T00:01:48.114Z,3.40
2023-05-05T00:04:17.698Z,6.37
2023-05-05T00:06:45.383Z,4.37
2023-05-05T00:09:13.263Z,4.80
2023-05-05T00:11:40.797Z,5.50
2023-05-05T00:14:08.421Z,4.53
2023-05-05T00:16:36.043Z,5.13
2023-05-05T00:19:05.026Z,4.80
2023-05-05T00:21:32.557Z,4.63
2023-05-05T00:24:00.156Z,5.53
2023-05-05T00:26:27.789Z,8.20
2023-05-05T00:28:55.440Z,3.70
2023-05-05T00:31:23.750Z,8.10
2023-05-05T00:33:51.444Z,5.97
2023-05-05T00:36:22.790Z,3.73
2023-05-05T00:38:50.349Z,6.03
2023-05-05T00:41:17.985Z,5.47
2023-05-05T00:43:45.567Z,8.13
2023-05-05T00:46:20.180Z,10.33
2023-05-05T00:48:47.740Z,6.37
2023-05-05T00:51:16.942Z,3.90
2023-05-05T00:53:46.200Z,6.37
2023-05-05T00:56:14.362Z,6.90
2023-05-05T00:58:42.966Z,6.07
2023-05-05T01:01:12.010Z,3.87
2023-05-05T01:03:41.163Z,5.53
2023-05-05T01:06:16.293Z,5.77
2023-05-05T01:08:55.086Z,4.37
2023-05-05T01:11:27.969Z,5.30
2023-05-05T01:14:09.084Z,6.33
2023-05-05T01:16:41.362Z,4.07
2023-05-05T01:19:18.417Z,7.30
2023-05-05T01:21:49.745Z,7.60
2023-05-05T01:24:45.176Z,8.50
2023-05-05T01:27:28.242Z,6.23
2023-05-05T01:30:04.744Z,6.30
2023-05-05T01:32:36.966Z,6.67
2023-05-05T01:35:10.000Z,6.80
2023-05-05T01:37:42.057Z,7.40
2023-05-05T01:40:11.867Z,7.20
2023-05-05T01:42:43.460Z,6.87
2023-05-05T01:45:12.982Z,6.37
2023-05-05T01:47:43.254Z,6.40
2023-05-05T01:50:12.150Z,8.30
2023-05-05T01:52:41.116Z,9.93
2023-05-05T01:55:09.516Z,10.73
2023-05-05T01:57:37.937Z,6.73
2023-05-05T02:00:07.591Z,8.33
2023-05-05T02:02:36.803Z,11.57
2023-05-05T02:05:06.815Z,8.47
2023-05-05T02:07:34.822Z,7.93
2023-05-05T02:10:03.550Z,7.53
2023-05-05T02:12:31.772Z,9.70
2023-05-05T02:15:01.044Z,8.03
2023-05-05T02:17:29.072Z,7.13
2023-05-05T02:19:57.031Z,7.57
2023-05-05T02:22:26.040Z,7.70
2023-05-05T02:24:53.742Z,8.53
2023-05-05T02:27:22.992Z,8.17
2023-05-05T02:29:53.974Z,6.57
2023-05-05T02:32:24.876Z,9.80
2023-05-05T02:34:53.149Z,7.30
2023-05-05T02:37:23.067Z,7.47
2023-05-05T02:39:58.760Z,7.30
2023-05-05T02:42:29.272Z,7.13
2023-05-05T02:44:59.639Z,6.60
2023-05-05T02:47:30.379Z,6.10
2023-05-05T02:49:57.956Z,7.67
2023-05-05T02:52:25.611Z,5.77
2023-05-05T02:54:54.568Z,6.27
2023-05-05T02:57:28.792Z,7.00
2023-05-05T03:00:00.421Z,5.30
2023-05-05T03:02:29.435Z,8.73
2023-05-05T03:05:01.523Z,7.53
2023-05-05T03:07:32.145Z,5.90
2023-05-05T03:10:06.488Z,5.80
2023-05-05T03:12:38.786Z,6.93
2023-05-05T03:15:09.200Z,7.10
2023-05-05T03:17:37.458Z,6.03
2023-05-05T03:20:06.848Z,6.37
2023-05-05T03:22:36.757Z,9.20
2023-05-05T03:25:06.399Z,7.53
2023-05-05T03:27:33.997Z,6.60
2023-05-05T03:30:01.573Z,7.17
2023-05-05T03:32:30.834Z,7.87
2023-05-05T03:34:58.421Z,7.73
2023-05-05T03:37:25.993Z,7.10
2023-05-05T03:39:53.582Z,5.67
2023-05-05T03:42:22.504Z,8.03
2023-05-05T03:44:50.074Z,5.80
2023-05-05T03:47:17.620Z,9.40
2023-05-05T03:49:45.208Z,6.77
2023-05-05T03:52:14.509Z,7.30
2023-05-05T03:54:43.110Z,6.30
2023-05-05T03:57:10.687Z,6.30
2023-05-05T03:59:39.613Z,7.40
2023-05-05T04:02:07.256Z,5.60
2023-05-05T04:04:34.941Z,5.53
2023-05-05T04:07:02.662Z,5.67
2023-05-05T04:09:30.363Z,4.80
2023-05-05T04:11:58.061Z,6.57
2023-05-05T04:14:25.881Z,5.57
2023-05-05T04:16:54.788Z,5.13
2023-05-05T04:19:22.328Z,5.13
2023-05-05T04:21:51.061Z,6.10
2023-05-05T04:24:22.969Z,6.57
2023-05-05T04:26:50.784Z,7.03
2023-05-05T04:29:18.396Z,4.87
2023-05-05T04:31:46.347Z,6.17
2023-05-05T04:34:15.381Z,5.53
2023-05-05T04:36:42.925Z,6.63
2023-05-05T04:39:10.559Z,6.77
2023-05-05T04:41:38.136Z,13.10
2023-05-05T04:44:06.073Z,7.00
2023-05-05T04:46:34.827Z,5.43
2023-05-05T04:49:04.913Z,6.00
2023-05-05T04:51:33.842Z,7.33
2023-05-05T04:54:01.452Z,5.53
2023-05-05T04:56:31.860Z,5.93
2023-05-05T04:58:59.427Z,6.03
2023-05-05T05:01:27.058Z,5.40
2023-05-05T05:03:54.737Z,5.90
2023-05-05T05:06:22.329Z,5.17
2023-05-05T05:08:51.949Z,5.30
2023-05-05T05:11:19.567Z,4.97
2023-05-05T05:13:47.257Z,6.67
2023-05-05T05:16:15.036Z,6.17
2023-05-05T05:18:42.746Z,5.60
2023-05-05T05:21:10.369Z,5.00
2023-05-05T05:23:37.932Z,5.20
2023-05-05T05:26:07.184Z,5.70
2023-05-05T05:28:34.738Z,4.77
2023-05-05T05:31:02.349Z,8.77
2023-05-05T05:33:29.945Z,10.93
2023-05-05T05:35:57.490Z,4.50
2023-05-05T05:38:25.096Z,4.97
2023-05-05T05:40:54.339Z,5.73
2023-05-05T05:43:23.273Z,6.03
2023-05-05T05:45:51.968Z,6.40
2023-05-05T05:48:20.002Z,5.77
2023-05-05T05:50:47.535Z,5.43
2023-05-05T05:53:15.130Z,5.67
2023-05-05T05:55:42.640Z,4.63
2023-05-05T05:58:10.238Z,6.23
2023-05-05T06:00:39.183Z,7.07
2023-05-05T06:03:07.497Z,4.60
2023-05-05T06:05:35.297Z,4.63
2023-05-05T06:08:02.915Z,4.10
2023-05-05T06:10:30.685Z,4.20
2023-05-05T06:12:58.442Z,4.80
2023-05-05T06:15:26.318Z,8.03
2023-05-05T06:17:55.248Z,5.47
2023-05-05T06:20:22.851Z,5.07
2023-05-05T06:22:50.424Z,6.40
2023-05-05T06:25:18.279Z,4.67
2023-05-05T06:27:45.901Z,5.33
2023-05-05T06:30:14.645Z,6.10
2023-05-05T06:32:42.524Z,6.03
2023-05-05T06:35:12.226Z,3.83
2023-05-05T06:37:39.874Z,3.80
2023-05-05T06:40:10.369Z,3.97
2023-05-05T06:42:38.317Z,7.13
2023-05-05T06:45:06.647Z,5.73
2023-05-05T06:47:34.316Z,5.37
2023-05-05T06:50:02.047Z,4.67
2023-05-05T06:52:31.013Z,3.70
2023-05-05T06:54:58.559Z,3.57
2023-05-05T06:57:26.144Z,4.23
2023-05-05T06:59:54.156Z,3.87
2023-05-05T07:02:22.516Z,4.50
2023-05-05T07:04:51.115Z,3.10
2023-05-05T07:07:18.766Z,6.73
2023-05-05T07:09:47.666Z,4.37
2023-05-05T07:12:15.313Z,4.07
2023-05-05T07:14:43.157Z,5.20
2023-05-05T07:17:11.421Z,5.40
2023-05-05T07:19:39.118Z,11.43
2023-05-05T07:22:06.706Z,4.10
2023-05-05T07:24:34.336Z,5.27
2023-05-05T07:27:03.285Z,7.17
2023-05-05T07:29:31.467Z,5.47
2023-05-05T07:31:59.051Z,4.47
2023-05-05T07:34:27.546Z,5.73
2023-05-05T07:36:56.326Z,3.93
2023-05-05T07:39:23.898Z,3.90
2023-05-05T07:41:51.532Z,3.93
2023-05-05T07:44:20.551Z,6.43
2023-05-05T07:46:48.239Z,5.73
2023-05-05T07:49:15.989Z,3.10
2023-05-05T07:51:43.620Z,4.30
2023-05-05T07:54:11.206Z,4.10
2023-05-05T07:56:38.921Z,4.73
2023-05-05T07:59:06.592Z,7.13
2023-05-05T08:01:35.561Z,3.87
2023-05-05T08:04:03.279Z,3.33
2023-05-05T08:06:31.835Z,3.20
2023-05-05T08:09:01.086Z,4.73
2023-05-05T08:11:29.627Z,3.80
2023-05-05T08:13:57.329Z,4.40
2023-05-05T08:16:24.977Z,5.03
2023-05-05T08:18:54.201Z,2.70
2023-05-05T08:21:21.814Z,3.60
2023-05-05T08:23:49.398Z,3.87
2023-05-05T08:26:16.961Z,2.73
2023-05-05T08:28:44.596Z,2.87
2023-05-05T08:31:12.196Z,2.77
2023-05-05T08:33:39.836Z,2.57
2023-05-05T08:36:09.198Z,3.23
2023-05-05T08:38:37.232Z,3.13
2023-05-05T08:41:04.835Z,3.30
2023-05-05T08:43:32.718Z,2.50
2023-05-05T08:46:00.708Z,3.57
2023-05-05T08:48:29.231Z,3.80
2023-05-05T08:51:00.818Z,3.30
2023-05-05T08:53:40.055Z,2.33
2023-05-05T08:56:08.755Z,1.97
2023-05-05T08:58:37.756Z,1.70
2023-05-05T09:01:07.298Z,5.33
2023-05-05T09:03:35.622Z,2.03
2023-05-05T09:06:03.461Z,1.23
2023-05-05T09:08:32.663Z,1.07
2023-05-05T09:11:01.683Z,3.67
2023-05-05T09:13:30.918Z,1.33
2023-05-05T09:15:58.491Z,1.73
2023-05-05T09:18:26.359Z,3.17
2023-05-05T09:20:53.986Z,1.23
2023-05-05T09:23:22.171Z,1.00
2023-05-05T09:26:04.143Z,1.83
2023-05-05T09:28:32.125Z,2.23
2023-05-05T09:31:13.529Z,1.47
2023-05-05T09:33:41.152Z,1.80
2023-05-05T09:36:09.130Z,1.30
2023-05-05T09:38:37.276Z,1.07
2023-05-05T09:41:06.528Z,2.20
2023-05-05T09:43:51.733Z,1.67
2023-05-05T09:46:19.663Z,1.10
2023-05-05T09:48:47.335Z,0.77
2023-05-05T09:51:14.995Z,3.70
2023-05-05T09:53:43.906Z,2.77
2023-05-05T09:56:13.139Z,4.80
2023-05-05T09:58:41.711Z,1.17
2023-05-05T10:01:23.330Z,1.20
2023-05-05T10:03:52.037Z,1.10
2023-05-05T10:06:19.655Z,1.00
2023-05-05T10:09:01.816Z,1.37
2023-05-05T10:11:30.885Z,1.70
2023-05-05T10:13:58.924Z,3.83
2023-05-05T10:16:29.070Z,4.67
2023-05-05T10:18:57.769Z,1.40
2023-05-05T10:21:26.422Z,1.40
2023-05-05T10:23:58.942Z,2.40
2023-05-05T10:26:27.787Z,3.75
2023-05-05T10:28:57.460Z,1.98
2023-05-05T10:31:28.456Z,2.50
2023-05-05T10:34:01.645Z,2.17
2023-05-05T10:36:30.401Z,2.08
2023-05-05T10:38:58.630Z,3.47
2023-05-05T10:41:26.962Z,2.05
2023-05-05T10:43:58.259Z,1.10
2023-05-05T10:46:26.644Z,1.60
2023-05-05T10:49:00.457Z,1.23
2023-05-05T10:51:40.029Z,1.40
2023-05-05T10:54:12.525Z,3.80
2023-05-05T10:56:41.874Z,2.15
2023-05-05T10:59:44.144Z,1.27
2023-05-05T11:02:23.502Z,5.00
2023-05-05T11:05:08.476Z,1.63
2023-05-05T11:07:36.226Z,4.07
2023-05-05T11:10:05.070Z,3.60
2023-05-05T11:12:36.055Z,2.30
2023-05-05T11:15:40.432Z,1.93
2023-05-05T11:18:08.625Z,3.63
2023-05-05T11:21:09.113Z,1.90
2023-05-05T11:23:37.111Z,1.27
2023-05-05T11:26:04.797Z,1.77
2023-05-05T11:28:32.709Z,2.10
2023-05-05T11:31:20.885Z,0.88
2023-05-05T11:33:48.682Z,2.13
2023-05-05T11:36:17.109Z,1.23
2023-05-05T11:39:09.468Z,1.25
2023-05-05T11:41:47.645Z,1.10
2023-05-05T11:44:16.544Z,3.28
2023-05-05T11:47:17.668Z,1.92
2023-05-05T11:49:46.699Z,0.95
2023-05-05T11:52:15.799Z,1.10
2023-05-05T11:54:47.622Z,1.35
2023-05-05T11:57:15.656Z,1.05
2023-05-05T11:59:52.333Z,0.60
2023-05-05T12:02:20.496Z,1.33
2023-05-05T12:04:50.057Z,0.63
2023-05-05T12:07:17.980Z,2.97
2023-05-05T12:09:46.594Z,1.33
2023-05-05T12:12:14.641Z,1.17
2023-05-05T12:14:51.674Z,0.82
2023-05-05T12:17:20.798Z,0.85
2023-05-05T12:19:51.720Z,1.08
2023-05-05T12:22:20.938Z,1.13
2023-05-05T12:24:55.934Z,1.45
2023-05-05T12:27:24.292Z,1.27
2023-05-05T12:29:52.337Z,1.17
2023-05-05T12:32:21.183Z,2.83
2023-05-05T12:34:53.860Z,1.65
2023-05-05T12:37:22.109Z,1.35
2023-05-05T12:39:50.329Z,1.05
2023-05-05T12:42:18.472Z,2.03
2023-05-05T12:44:46.771Z,1.27
2023-05-05T12:47:15.074Z,2.65
2023-05-05T12:49:46.713Z,2.72
2023-05-05T12:52:16.323Z,1.50
2023-05-05T12:55:05.487Z,2.08
2023-05-05T12:57:33.190Z,1.88
2023-05-05T13:00:13.583Z,1.25
2023-05-05T13:02:41.294Z,5.50
2023-05-05T13:05:09.853Z,1.15
2023-05-05T13:07:50.703Z,1.33
2023-05-05T13:10:18.480Z,0.63
2023-05-05T13:12:46.153Z,1.27
2023-05-05T13:15:14.380Z,0.63
2023-05-05T13:17:42.086Z,2.65
2023-05-05T13:20:11.093Z,1.98
2023-05-05T13:22:40.103Z,1.85
2023-05-05T13:25:08.321Z,1.17
2023-05-05T13:27:37.760Z,2.03
2023-05-05T13:30:06.369Z,1.55
2023-05-05T13:32:34.044Z,0.90
2023-05-05T13:35:01.637Z,0.73
2023-05-05T13:37:29.444Z,1.05
2023-05-05T13:39:59.377Z,2.05
2023-05-05T13:42:27.163Z,3.47
2023-05-05T13:44:54.762Z,3.85
2023-05-05T13:47:22.568Z,1.13
2023-05-05T13:49:50.455Z,1.38
2023-05-05T13:52:18.147Z,4.63
2023-05-05T13:54:45.785Z,1.58
2023-05-05T13:57:14.909Z,3.58
2023-05-05T13:59:42.568Z,2.28
2023-05-05T14:02:10.224Z,1.70
2023-05-05T14:04:37.866Z,1.98
2023-05-05T14:07:05.407Z,1.25
2023-05-05T14:09:33.005Z,2.45
2023-05-05T14:12:00.546Z,2.63
2023-05-05T14:14:29.497Z,5.32
2023-05-05T14:16:57.185Z,0.80
2023-05-05T14:19:24.888Z,2.00
2023-05-05T14:21:52.537Z,0.77
2023-05-05T14:24:20.291Z,1.35
2023-05-05T14:26:47.891Z,1.90
2023-05-05T14:29:15.493Z,2.13
2023-05-05T14:31:44.487Z,2.37
2023-05-05T14:34:12.087Z,2.55
2023-05-05T14:36:39.749Z,5.70
2023-05-05T14:39:07.392Z,2.27
2023-05-05T14:41:35.210Z,0.83
2023-05-05T14:44:02.843Z,2.10
2023-05-05T14:46:31.171Z,1.73
2023-05-05T14:49:00.382Z,3.50
2023-05-05T14:51:28.025Z,0.80
2023-05-05T14:53:55.621Z,1.20
2023-05-05T14:56:24.326Z,5.57
2023-05-05T14:58:51.840Z,1.30
2023-05-05T15:01:20.662Z,2.03
2023-05-05T15:03:48.372Z,3.83
2023-05-05T15:06:17.521Z,2.20
2023-05-05T15:08:45.085Z,2.10
2023-05-05T15:11:13.728Z,2.70
2023-05-05T15:13:41.664Z,2.33
2023-05-05T15:16:09.386Z,5.70
2023-05-05T15:18:37.399Z,2.30
2023-05-05T15:21:05.411Z,3.53
2023-05-05T15:23:34.678Z,3.03
2023-05-05T15:26:07.799Z,1.90
2023-05-05T15:28:35.909Z,3.73
2023-05-05T15:31:03.664Z,1.90
2023-05-05T15:33:31.971Z,3.33
2023-05-05T15:35:59.549Z,2.00
2023-05-05T15:38:28.949Z,1.43
2023-05-05T15:40:58.021Z,1.27
2023-05-05T15:43:26.026Z,4.40
2023-05-05T15:45:54.855Z,1.00
2023-05-05T15:48:22.454Z,3.30
2023-05-05T15:50:50.186Z,6.70
2023-05-05T15:53:17.729Z,2.33
2023-05-05T15:55:45.347Z,1.20
2023-05-05T15:58:14.290Z,3.43
2023-05-05T16:00:42.019Z,1.10
2023-05-05T16:03:09.684Z,1.33
2023-05-05T16:05:37.699Z,3.10
2023-05-05T16:08:10.336Z,2.43
2023-05-05T16:10:38.260Z,3.33
2023-05-05T16:13:05.997Z,3.23
2023-05-05T16:15:35.389Z,1.10
2023-05-05T16:18:03.017Z,1.30
2023-05-05T16:20:30.731Z,2.23
2023-05-05T16:22:58.413Z,2.67
2023-05-05T16:25:26.051Z,2.33
2023-05-05T16:27:56.560Z,3.63
2023-05-05T16:30:24.152Z,2.20
2023-05-05T16:32:54.326Z,2.20
2023-05-05T16:35:22.817Z,2.40
2023-05-05T16:37:50.435Z,2.13
2023-05-05T16:40:18.059Z,2.90
2023-05-05T16:42:45.614Z,3.93
2023-05-05T16:45:13.158Z,3.67
2023-05-05T16:47:40.823Z,5.13
2023-05-05T16:50:10.604Z,2.60
2023-05-05T16:52:38.561Z,1.83
2023-05-05T16:55:08.125Z,3.13
2023-05-05T16:57:36.648Z,5.47
2023-05-05T17:00:04.776Z,2.40
2023-05-05T17:02:32.433Z,3.87
2023-05-05T17:05:00.091Z,2.10
2023-05-05T17:07:29.130Z,2.63
2023-05-05T17:09:56.766Z,2.60
2023-05-05T17:12:24.447Z,1.27
2023-05-05T17:14:52.290Z,2.17
2023-05-05T17:17:19.987Z,2.03
2023-05-05T17:19:47.637Z,2.20
2023-05-05T17:22:15.198Z,4.77
2023-05-05T17:24:44.119Z,4.80
2023-05-05T17:27:12.640Z,3.03
2023-05-05T17:29:41.218Z,2.50
2023-05-05T17:32:09.390Z,1.83
2023-05-05T17:34:37.105Z,1.87
2023-05-05T17:37:04.790Z,1.30
2023-05-05T17:39:32.337Z,1.57
2023-05-05T17:42:01.311Z,3.27
2023-05-05T17:44:28.869Z,1.73
2023-05-05T17:46:56.412Z,2.10
2023-05-05T17:49:25.234Z,1.10
2023-05-05T17:51:52.867Z,1.43
2023-05-05T17:54:20.973Z,2.00
2023-05-05T17:56:48.505Z,3.43
2023-05-05T17:59:17.440Z,2.50
2023-05-05T18:01:45.058Z,1.80
2023-05-05T18:04:12.675Z,2.43
2023-05-05T18:06:40.246Z,2.17
2023-05-05T18:09:09.209Z,1.97
2023-05-05T18:11:38.798Z,4.43
2023-05-05T18:14:06.301Z,12.57
2023-05-05T18:16:35.270Z,2.53
2023-05-05T18:19:02.864Z,1.13
2023-05-05T18:21:30.428Z,1.83
2023-05-05T18:24:07.579Z,2.87
2023-05-05T18:26:39.639Z,1.50
2023-05-05T18:29:07.536Z,1.37
2023-05-05T18:31:36.464Z,1.13
2023-05-05T18:34:04.082Z,0.83
2023-05-05T18:36:31.754Z,2.07
2023-05-05T18:38:59.353Z,1.70
2023-05-05T18:41:26.935Z,4.97
2023-05-05T18:43:54.525Z,1.07
2023-05-05T18:46:22.418Z,2.50
2023-05-05T18:48:51.346Z,1.70
2023-05-05T18:51:18.846Z,2.00
2023-05-05T18:53:46.458Z,3.10
2023-05-05T18:56:14.028Z,3.67
2023-05-05T18:58:41.619Z,2.43
2023-05-05T19:01:09.269Z,3.00
2023-05-05T19:03:36.964Z,1.87
2023-05-05T19:06:07.879Z,3.57
2023-05-05T19:08:35.399Z,2.90
2023-05-05T19:11:03.557Z,2.00
2023-05-05T19:13:31.434Z,1.33
2023-05-05T19:15:59.008Z,2.47
2023-05-05T19:18:26.715Z,3.73
2023-05-05T19:20:54.491Z,3.33
2023-05-05T19:23:23.487Z,1.73
2023-05-05T19:25:51.948Z,1.50
2023-05-05T19:28:19.723Z,1.67
2023-05-05T19:30:48.590Z,2.27
2023-05-05T19:33:16.390Z,1.63
2023-05-05T19:35:44.196Z,1.23
2023-05-05T19:38:11.965Z,1.43
2023-05-05T19:40:41.109Z,1.53
2023-05-05T19:43:09.089Z,1.57
2023-05-05T19:45:36.682Z,1.50
2023-05-05T19:48:04.409Z,1.30
2023-05-05T19:50:32.025Z,3.97
2023-05-05T19:52:59.701Z,4.23
2023-05-05T19:55:27.225Z,1.30
2023-05-05T19:57:56.177Z,1.87
2023-05-05T20:00:24.064Z,2.27
2023-05-05T20:02:51.822Z,1.70
2023-05-05T20:05:19.717Z,1.97
2023-05-05T20:07:47.300Z,1.90
2023-05-05T20:10:15.795Z,1.80
2023-05-05T20:12:47.932Z,1.90
2023-05-05T20:15:19.776Z,1.70
2023-05-05T20:17:47.686Z,1.80
2023-05-05T20:20:18.469Z,0.97
2023-05-05T20:22:46.221Z,1.37
2023-05-05T20:25:15.082Z,1.57
2023-05-05T20:27:46.159Z,1.70
2023-05-05T20:30:14.458Z,1.53
2023-05-05T20:32:43.461Z,1.00
2023-05-05T20:35:12.738Z,1.20
2023-05-05T20:37:40.376Z,1.07
2023-05-05T20:40:09.509Z,1.70
2023-05-05T20:42:37.482Z,1.93
2023-05-05T20:45:06.926Z,1.50
2023-05-05T20:47:35.105Z,0.63
2023-05-05T20:50:04.262Z,1.20
2023-05-05T20:52:31.828Z,1.23
2023-05-05T20:54:59.436Z,2.20
2023-05-05T20:57:27.011Z,1.10
2023-05-05T20:59:54.573Z,1.67
2023-05-05T21:02:22.216Z,1.27
2023-05-05T21:04:49.817Z,0.90
2023-05-05T21:07:18.761Z,1.93
2023-05-05T21:09:48.131Z,0.97
2023-05-05T21:12:15.692Z,2.13
2023-05-05T21:14:44.346Z,0.73
2023-05-05T21:17:11.869Z,3.70
2023-05-05T21:19:39.693Z,1.67
2023-05-05T21:22:07.221Z,1.60
2023-05-05T21:24:36.280Z,1.30
2023-05-05T21:27:03.992Z,1.07
2023-05-05T21:29:34.254Z,1.87
2023-05-05T21:32:01.988Z,3.93
2023-05-05T21:34:29.607Z,1.43
2023-05-05T21:36:58.106Z,2.67
2023-05-05T21:39:25.716Z,2.37
2023-05-05T21:41:54.723Z,3.40
2023-05-05T21:44:22.256Z,1.73
2023-05-05T21:46:49.896Z,1.53
2023-05-05T21:49:18.070Z,1.10
2023-05-05T21:51:46.638Z,2.30
2023-05-05T21:54:14.310Z,1.40
2023-05-05T21:56:41.851Z,1.50
2023-05-05T21:59:11.002Z,3.23
2023-05-05T22:01:38.639Z,1.23
2023-05-05T22:04:07.404Z,3.77
2023-05-05T22:06:35.193Z,1.27
2023-05-05T22:09:02.783Z,1.43
2023-05-05T22:11:30.366Z,3.33
2023-05-05T22:13:57.962Z,2.37
2023-05-05T22:16:26.977Z,2.40
2023-05-05T22:18:54.531Z,1.60
2023-05-05T22:21:22.177Z,4.27
2023-05-05T22:23:49.740Z,2.63
2023-05-05T22:26:17.356Z,2.10
2023-05-05T22:28:44.841Z,2.80
2023-05-05T22:31:12.612Z,5.67
2023-05-05T22:33:41.523Z,2.30
2023-05-05T22:36:10.048Z,2.27
2023-05-05T22:38:37.657Z,3.33
2023-05-05T22:41:07.183Z,1.50
2023-05-05T22:43:34.741Z,2.03
2023-05-05T22:46:02.288Z,1.37
2023-05-05T22:48:29.906Z,2.73
2023-05-05T22:50:59.739Z,4.13
2023-05-05T22:53:27.372Z,5.03
2023-05-05T22:55:55.024Z,3.33
2023-05-05T22:58:22.930Z,2.70
2023-05-05T23:00:50.499Z,2.50
2023-05-05T23:03:18.143Z,3.23
2023-05-05T23:05:45.896Z,2.47
2023-05-05T23:08:14.808Z,2.00
2023-05-05T23:10:42.328Z,3.53
2023-05-05T23:13:10.053Z,2.73
2023-05-05T23:15:37.676Z,1.97
2023-05-05T23:18:05.509Z,6.20
2023-05-05T23:20:33.206Z,1.40
2023-05-05T23:23:01.183Z,4.27
2023-05-05T23:25:30.361Z,4.87
2023-05-05T23:27:58.049Z,2.20
2023-05-05T23:30:25.780Z,1.40
2023-05-05T23:32:54.311Z,1.67
2023-05-05T23:35:22.039Z,3.97
2023-05-05T23:37:49.859Z,2.77
2023-05-05T23:40:17.856Z,1.70
2023-05-05T23:42:46.891Z,2.30
2023-05-05T23:45:14.516Z,4.07
2023-05-05T23:47:42.316Z,1.63
2023-05-05T23:50:10.774Z,1.60
2023-05-05T23:52:38.419Z,2.20
2023-05-05T23:55:07.460Z,4.10
2023-05-05T23:57:36.412Z,2.67
